sensor_id;sensor_type;location;lat;lon;timestamp;temperature;humidity
66576;SHT31;53428;47.686;16.584;2022-12-10T00:02:23;3.34;96.87
66576;SHT31;53428;47.686;16.584;2022-12-10T00:07:22;3.33;96.94
66576;SHT31;53428;47.686;16.584;2022-12-10T00:12:22;3.31;96.70
66576;SHT31;53428;47.686;16.584;2022-12-10T00:17:21;3.37;96.70
66576;SHT31;53428;47.686;16.584;2022-12-10T00:22:20;3.40;96.60
66576;SHT31;53428;47.686;16.584;2022-12-10T00:27:19;3.36;96.87
66576;SHT31;53428;47.686;16.584;2022-12-10T00:32:19;3.39;96.35
66576;SHT31;53428;47.686;16.584;2022-12-10T00:37:18;3.33;95.99
66576;SHT31;53428;47.686;16.584;2022-12-10T00:42:17;3.36;96.03
66576;SHT31;53428;47.686;16.584;2022-12-10T00:47:16;3.33;96.10
66576;SHT31;53428;47.686;16.584;2022-12-10T00:52:16;3.30;95.53
66576;SHT31;53428;47.686;16.584;2022-12-10T00:57:15;3.26;95.61
66576;SHT31;53428;47.686;16.584;2022-12-10T01:02:15;3.24;95.51
66576;SHT31;53428;47.686;16.584;2022-12-10T01:07:14;3.30;94.71
66576;SHT31;53428;47.686;16.584;2022-12-10T01:12:14;3.26;94.92
66576;SHT31;53428;47.686;16.584;2022-12-10T01:17:13;3.30;94.75
66576;SHT31;53428;47.686;16.584;2022-12-10T01:22:13;3.39;94.42
66576;SHT31;53428;47.686;16.584;2022-12-10T01:27:12;3.30;94.48
66576;SHT31;53428;47.686;16.584;2022-12-10T01:32:11;3.39;94.38
66576;SHT31;53428;47.686;16.584;2022-12-10T01:37:11;3.37;93.95
66576;SHT31;53428;47.686;16.584;2022-12-10T01:42:12;3.34;93.93
66576;SHT31;53428;47.686;16.584;2022-12-10T01:47:12;3.36;94.30
66576;SHT31;53428;47.686;16.584;2022-12-10T01:52:12;3.44;93.62
66576;SHT31;53428;47.686;16.584;2022-12-10T01:57:21;3.43;93.22
66576;SHT31;53428;47.686;16.584;2022-12-10T02:18:40;3.41;93.22
66576;SHT31;53428;47.686;16.584;2022-12-10T02:23:44;3.41;93.06
66576;SHT31;53428;47.686;16.584;2022-12-10T02:34:12;3.41;93.02
66576;SHT31;53428;47.686;16.584;2022-12-10T02:39:14;3.39;92.76
66576;SHT31;53428;47.686;16.584;2022-12-10T02:44:16;3.41;92.27
66576;SHT31;53428;47.686;16.584;2022-12-10T02:49:17;3.37;92.44
66576;SHT31;53428;47.686;16.584;2022-12-10T02:54:38;3.40;92.14
66576;SHT31;53428;47.686;16.584;2022-12-10T03:05:05;3.39;91.82
66576;SHT31;53428;47.686;16.584;2022-12-10T03:15:26;3.37;91.61
66576;SHT31;53428;47.686;16.584;2022-12-10T03:20:26;3.43;91.79
66576;SHT31;53428;47.686;16.584;2022-12-10T03:25:27;3.37;91.66
66576;SHT31;53428;47.686;16.584;2022-12-10T03:30:30;3.46;91.52
66576;SHT31;53428;47.686;16.584;2022-12-10T03:35:31;3.40;91.52
66576;SHT31;53428;47.686;16.584;2022-12-10T03:40:31;3.40;91.95
66576;SHT31;53428;47.686;16.584;2022-12-10T03:45:30;3.37;91.61
66576;SHT31;53428;47.686;16.584;2022-12-10T03:50:29;3.39;91.38
66576;SHT31;53428;47.686;16.584;2022-12-10T03:55:28;3.41;91.08
66576;SHT31;53428;47.686;16.584;2022-12-10T04:00:28;3.40;91.58
66576;SHT31;53428;47.686;16.584;2022-12-10T04:05:27;3.43;91.13
66576;SHT31;53428;47.686;16.584;2022-12-10T04:10:26;3.39;91.03
66576;SHT31;53428;47.686;16.584;2022-12-10T04:15:25;3.34;91.39
66576;SHT31;53428;47.686;16.584;2022-12-10T04:20:43;3.36;91.51
66576;SHT31;53428;47.686;16.584;2022-12-10T04:26:01;3.27;91.56
66576;SHT31;53428;47.686;16.584;2022-12-10T04:31:19;3.26;91.59
66576;SHT31;53428;47.686;16.584;2022-12-10T04:36:18;3.22;92.12
66576;SHT31;53428;47.686;16.584;2022-12-10T04:41:17;3.20;91.85
66576;SHT31;53428;47.686;16.584;2022-12-10T04:46:16;3.23;91.70
66576;SHT31;53428;47.686;16.584;2022-12-10T04:51:16;3.24;91.80
66576;SHT31;53428;47.686;16.584;2022-12-10T04:56:15;3.23;91.80
66576;SHT31;53428;47.686;16.584;2022-12-10T05:01:14;3.27;91.96
66576;SHT31;53428;47.686;16.584;2022-12-10T05:06:15;3.29;92.04
66576;SHT31;53428;47.686;16.584;2022-12-10T05:11:17;3.29;91.70
66576;SHT31;53428;47.686;16.584;2022-12-10T05:16:18;3.27;91.50
66576;SHT31;53428;47.686;16.584;2022-12-10T05:21:19;3.43;91.34
66576;SHT31;53428;47.686;16.584;2022-12-10T05:26:22;3.34;90.92
66576;SHT31;53428;47.686;16.584;2022-12-10T05:31:24;3.39;90.72
66576;SHT31;53428;47.686;16.584;2022-12-10T05:36:27;3.36;90.92
66576;SHT31;53428;47.686;16.584;2022-12-10T05:41:29;3.33;90.87
66576;SHT31;53428;47.686;16.584;2022-12-10T05:46:31;3.34;91.39
66576;SHT31;53428;47.686;16.584;2022-12-10T05:51:32;3.39;91.32
66576;SHT31;53428;47.686;16.584;2022-12-10T05:56:32;3.43;91.32
66576;SHT31;53428;47.686;16.584;2022-12-10T06:01:33;3.30;92.02
66576;SHT31;53428;47.686;16.584;2022-12-10T06:06:35;3.27;91.92
66576;SHT31;53428;47.686;16.584;2022-12-10T06:11:36;3.23;92.14
66576;SHT31;53428;47.686;16.584;2022-12-10T06:16:35;3.24;92.15
66576;SHT31;53428;47.686;16.584;2022-12-10T06:21:34;3.22;92.34
66576;SHT31;53428;47.686;16.584;2022-12-10T06:26:34;3.26;92.32
66576;SHT31;53428;47.686;16.584;2022-12-10T06:31:33;3.22;92.39
66576;SHT31;53428;47.686;16.584;2022-12-10T06:36:32;3.13;92.76
66576;SHT31;53428;47.686;16.584;2022-12-10T06:41:32;3.22;92.56
66576;SHT31;53428;47.686;16.584;2022-12-10T06:46:31;3.13;92.60
66576;SHT31;53428;47.686;16.584;2022-12-10T06:51:30;3.13;92.70
66576;SHT31;53428;47.686;16.584;2022-12-10T06:56:30;3.09;92.94
66576;SHT31;53428;47.686;16.584;2022-12-10T07:01:30;3.13;92.76
66576;SHT31;53428;47.686;16.584;2022-12-10T07:06:31;3.12;92.92
66576;SHT31;53428;47.686;16.584;2022-12-10T07:11:30;3.16;92.77
66576;SHT31;53428;47.686;16.584;2022-12-10T07:16:31;3.08;92.77
66576;SHT31;53428;47.686;16.584;2022-12-10T07:21:33;3.26;92.51
66576;SHT31;53428;47.686;16.584;2022-12-10T07:26:36;3.10;92.85
66576;SHT31;53428;47.686;16.584;2022-12-10T07:31:36;3.23;92.23
66576;SHT31;53428;47.686;16.584;2022-12-10T07:36:35;3.33;91.61
66576;SHT31;53428;47.686;16.584;2022-12-10T07:41:35;3.29;91.68
66576;SHT31;53428;47.686;16.584;2022-12-10T07:46:35;3.27;91.94
66576;SHT31;53428;47.686;16.584;2022-12-10T07:51:34;3.24;91.81
66576;SHT31;53428;47.686;16.584;2022-12-10T07:56:33;3.34;91.18
66576;SHT31;53428;47.686;16.584;2022-12-10T08:01:33;3.33;91.23
66576;SHT31;53428;47.686;16.584;2022-12-10T08:06:32;3.43;91.39
66576;SHT31;53428;47.686;16.584;2022-12-10T08:11:31;3.43;91.45
66576;SHT31;53428;47.686;16.584;2022-12-10T08:16:31;3.33;91.23
66576;SHT31;53428;47.686;16.584;2022-12-10T08:21:32;3.50;91.05
66576;SHT31;53428;47.686;16.584;2022-12-10T08:26:33;3.56;90.25
66576;SHT31;53428;47.686;16.584;2022-12-10T08:31:32;3.78;89.65
66576;SHT31;53428;47.686;16.584;2022-12-10T08:36:31;3.74;89.91
66576;SHT31;53428;47.686;16.584;2022-12-10T08:41:30;3.81;89.51
66576;SHT31;53428;47.686;16.584;2022-12-10T08:46:30;3.84;88.66
66576;SHT31;53428;47.686;16.584;2022-12-10T08:51:29;3.79;88.87
66576;SHT31;53428;47.686;16.584;2022-12-10T08:56:28;3.85;88.97
66576;SHT31;53428;47.686;16.584;2022-12-10T09:01:27;4.05;87.45
66576;SHT31;53428;47.686;16.584;2022-12-10T09:06:27;4.13;86.95
66576;SHT31;53428;47.686;16.584;2022-12-10T09:11:32;3.91;88.00
66576;SHT31;53428;47.686;16.584;2022-12-10T09:16:35;4.06;87.63
66576;SHT31;53428;47.686;16.584;2022-12-10T09:21:34;4.05;88.46
66576;SHT31;53428;47.686;16.584;2022-12-10T09:26:34;3.82;87.87
66576;SHT31;53428;47.686;16.584;2022-12-10T09:31:33;3.89;88.12
66576;SHT31;53428;47.686;16.584;2022-12-10T09:36:32;3.85;88.36
66576;SHT31;53428;47.686;16.584;2022-12-10T09:41:51;3.88;88.45
66576;SHT31;53428;47.686;16.584;2022-12-10T09:46:55;3.77;88.82
66576;SHT31;53428;47.686;16.584;2022-12-10T09:51:58;3.77;88.34
66576;SHT31;53428;47.686;16.584;2022-12-10T09:56:59;3.68;88.41
66576;SHT31;53428;47.686;16.584;2022-12-10T10:07:38;3.79;88.40
66576;SHT31;53428;47.686;16.584;2022-12-10T10:12:39;3.71;88.79
66576;SHT31;53428;47.686;16.584;2022-12-10T10:17:38;3.53;89.45
66576;SHT31;53428;47.686;16.584;2022-12-10T10:22:39;3.56;90.06
66576;SHT31;53428;47.686;16.584;2022-12-10T10:27:38;3.54;89.89
66576;SHT31;53428;47.686;16.584;2022-12-10T10:37:41;3.61;89.53
66576;SHT31;53428;47.686;16.584;2022-12-10T10:42:43;3.63;90.11
66576;SHT31;53428;47.686;16.584;2022-12-10T10:47:43;3.78;89.01
66576;SHT31;53428;47.686;16.584;2022-12-10T10:52:43;3.85;89.18
66576;SHT31;53428;47.686;16.584;2022-12-10T10:57:42;3.74;89.41
66576;SHT31;53428;47.686;16.584;2022-12-10T11:02:41;3.70;89.13
66576;SHT31;53428;47.686;16.584;2022-12-10T11:07:41;3.70;89.29
66576;SHT31;53428;47.686;16.584;2022-12-10T11:12:40;3.63;89.35
66576;SHT31;53428;47.686;16.584;2022-12-10T11:17:46;3.73;89.52
66576;SHT31;53428;47.686;16.584;2022-12-10T11:22:51;3.67;89.63
66576;SHT31;53428;47.686;16.584;2022-12-10T11:28:00;3.68;89.50
66576;SHT31;53428;47.686;16.584;2022-12-10T11:43:37;3.82;88.72
66576;SHT31;53428;47.686;16.584;2022-12-10T12:10:35;3.87;88.74
66576;SHT31;53428;47.686;16.584;2022-12-10T12:15:51;3.99;88.20
66576;SHT31;53428;47.686;16.584;2022-12-10T12:20:57;4.03;88.22
66576;SHT31;53428;47.686;16.584;2022-12-10T12:26:10;3.84;88.61
66576;SHT31;53428;47.686;16.584;2022-12-10T12:31:16;3.75;89.27
66576;SHT31;53428;47.686;16.584;2022-12-10T12:36:36;3.85;89.09
66576;SHT31;53428;47.686;16.584;2022-12-10T12:41:57;3.74;89.28
66576;SHT31;53428;47.686;16.584;2022-12-10T12:47:02;3.68;89.70
66576;SHT31;53428;47.686;16.584;2022-12-10T13:07:38;3.70;89.91
66576;SHT31;53428;47.686;16.584;2022-12-10T13:17:37;3.54;89.98
66576;SHT31;53428;47.686;16.584;2022-12-10T13:22:43;3.74;89.80
66576;SHT31;53428;47.686;16.584;2022-12-10T13:27:57;3.73;90.07
66576;SHT31;53428;47.686;16.584;2022-12-10T13:33:19;3.73;89.81
66576;SHT31;53428;47.686;16.584;2022-12-10T13:38:25;3.66;90.16
66576;SHT31;53428;47.686;16.584;2022-12-10T13:48:57;3.67;89.98
66576;SHT31;53428;47.686;16.584;2022-12-10T13:59:53;3.67;90.26
66576;SHT31;53428;47.686;16.584;2022-12-10T14:10:21;3.51;90.22
66576;SHT31;53428;47.686;16.584;2022-12-10T14:15:24;3.51;90.29
66576;SHT31;53428;47.686;16.584;2022-12-10T14:20:25;3.47;89.84
66576;SHT31;53428;47.686;16.584;2022-12-10T14:25:24;3.48;90.01
66576;SHT31;53428;47.686;16.584;2022-12-10T14:30:25;3.41;89.99
66576;SHT31;53428;47.686;16.584;2022-12-10T14:35:28;3.43;89.87
66576;SHT31;53428;47.686;16.584;2022-12-10T14:40:41;3.43;90.02
66576;SHT31;53428;47.686;16.584;2022-12-10T14:45:47;3.39;90.19
66576;SHT31;53428;47.686;16.584;2022-12-10T14:50:50;3.34;90.12
66576;SHT31;53428;47.686;16.584;2022-12-10T14:55:55;3.29;90.04
66576;SHT31;53428;47.686;16.584;2022-12-10T15:00:56;3.27;90.22
66576;SHT31;53428;47.686;16.584;2022-12-10T15:05:58;3.24;90.52
66576;SHT31;53428;47.686;16.584;2022-12-10T15:11:00;3.24;90.32
66576;SHT31;53428;47.686;16.584;2022-12-10T15:16:01;3.09;91.09
66576;SHT31;53428;47.686;16.584;2022-12-10T15:21:09;3.06;91.09
66576;SHT31;53428;47.686;16.584;2022-12-10T15:26:45;3.05;90.81
66576;SHT31;53428;47.686;16.584;2022-12-10T15:31:45;3.00;91.49
66576;SHT31;53428;47.686;16.584;2022-12-10T15:36:56;2.99;91.54
66576;SHT31;53428;47.686;16.584;2022-12-10T15:41:58;3.03;91.60
66576;SHT31;53428;47.686;16.584;2022-12-10T15:52:15;2.93;92.44
66576;SHT31;53428;47.686;16.584;2022-12-10T15:57:20;2.99;92.21
66576;SHT31;53428;47.686;16.584;2022-12-10T16:02:48;2.88;92.75
66576;SHT31;53428;47.686;16.584;2022-12-10T16:07:51;2.87;93.26
66576;SHT31;53428;47.686;16.584;2022-12-10T16:13:03;2.87;93.57
66576;SHT31;53428;47.686;16.584;2022-12-10T16:18:03;2.85;93.73
66576;SHT31;53428;47.686;16.584;2022-12-10T16:23:03;2.84;94.29
66576;SHT31;53428;47.686;16.584;2022-12-10T16:28:05;2.79;94.56
66576;SHT31;53428;47.686;16.584;2022-12-10T16:33:04;2.75;94.85
66576;SHT31;53428;47.686;16.584;2022-12-10T16:38:06;2.72;95.17
66576;SHT31;53428;47.686;16.584;2022-12-10T16:43:11;2.65;95.40
66576;SHT31;53428;47.686;16.584;2022-12-10T16:48:12;2.64;95.34
66576;SHT31;53428;47.686;16.584;2022-12-10T16:53:27;2.61;95.51
66576;SHT31;53428;47.686;16.584;2022-12-10T16:58:28;2.61;95.36
66576;SHT31;53428;47.686;16.584;2022-12-10T17:03:27;2.61;95.24
66576;SHT31;53428;47.686;16.584;2022-12-10T17:08:29;2.57;95.56
66576;SHT31;53428;47.686;16.584;2022-12-10T17:13:32;2.55;95.51
66576;SHT31;53428;47.686;16.584;2022-12-10T17:18:33;2.54;95.59
66576;SHT31;53428;47.686;16.584;2022-12-10T17:23:34;2.54;95.57
66576;SHT31;53428;47.686;16.584;2022-12-10T17:34:11;2.60;95.62
66576;SHT31;53428;47.686;16.584;2022-12-10T17:39:17;2.48;96.02
66576;SHT31;53428;47.686;16.584;2022-12-10T17:44:18;2.41;96.34
66576;SHT31;53428;47.686;16.584;2022-12-10T17:49:18;2.40;96.42
66576;SHT31;53428;47.686;16.584;2022-12-10T17:54:18;2.50;96.56
66576;SHT31;53428;47.686;16.584;2022-12-10T17:59:20;2.47;96.48
66576;SHT31;53428;47.686;16.584;2022-12-10T18:04:28;2.38;96.64
66576;SHT31;53428;47.686;16.584;2022-12-10T18:09:38;2.29;97.30
66576;SHT31;53428;47.686;16.584;2022-12-10T18:14:43;2.23;97.54
66576;SHT31;53428;47.686;16.584;2022-12-10T18:19:43;2.22;97.73
66576;SHT31;53428;47.686;16.584;2022-12-10T18:24:43;2.17;97.61
66576;SHT31;53428;47.686;16.584;2022-12-10T18:29:42;2.14;97.77
66576;SHT31;53428;47.686;16.584;2022-12-10T18:34:41;2.07;98.19
66576;SHT31;53428;47.686;16.584;2022-12-10T18:39:41;2.02;98.55
66576;SHT31;53428;47.686;16.584;2022-12-10T18:44:40;1.93;99.14
66576;SHT31;53428;47.686;16.584;2022-12-10T18:49:40;1.87;99.79
66576;SHT31;53428;47.686;16.584;2022-12-10T18:54:39;1.79;99.99
66576;SHT31;53428;47.686;16.584;2022-12-10T18:59:39;1.79;99.99
66576;SHT31;53428;47.686;16.584;2022-12-10T19:04:40;1.83;99.99
66576;SHT31;53428;47.686;16.584;2022-12-10T19:09:41;1.83;99.99
66576;SHT31;53428;47.686;16.584;2022-12-10T19:14:41;1.86;99.99
66576;SHT31;53428;47.686;16.584;2022-12-10T19:19:40;1.89;99.99
66576;SHT31;53428;47.686;16.584;2022-12-10T19:24:40;1.93;99.99
66576;SHT31;53428;47.686;16.584;2022-12-10T19:29:39;1.96;99.99
66576;SHT31;53428;47.686;16.584;2022-12-10T19:34:39;1.95;99.99
66576;SHT31;53428;47.686;16.584;2022-12-10T19:39:40;1.96;99.99
66576;SHT31;53428;47.686;16.584;2022-12-10T19:44:40;1.99;99.99
66576;SHT31;53428;47.686;16.584;2022-12-10T19:49:40;2.05;99.99
66576;SHT31;53428;47.686;16.584;2022-12-10T19:54:39;2.03;99.90
66576;SHT31;53428;47.686;16.584;2022-12-10T19:59:39;2.03;99.99
66576;SHT31;53428;47.686;16.584;2022-12-10T20:04:39;2.07;99.14
66576;SHT31;53428;47.686;16.584;2022-12-10T20:09:38;2.10;98.84
66576;SHT31;53428;47.686;16.584;2022-12-10T20:14:38;2.16;98.01
66576;SHT31;53428;47.686;16.584;2022-12-10T20:19:38;2.12;98.56
66576;SHT31;53428;47.686;16.584;2022-12-10T20:24:38;2.12;98.15
66576;SHT31;53428;47.686;16.584;2022-12-10T20:29:40;2.16;97.90
66576;SHT31;53428;47.686;16.584;2022-12-10T20:34:40;2.17;97.18
66576;SHT31;53428;47.686;16.584;2022-12-10T20:39:40;2.24;96.90
66576;SHT31;53428;47.686;16.584;2022-12-10T20:44:40;2.24;97.10
66576;SHT31;53428;47.686;16.584;2022-12-10T20:49:40;2.23;96.71
66576;SHT31;53428;47.686;16.584;2022-12-10T20:54:40;2.27;96.69
66576;SHT31;53428;47.686;16.584;2022-12-10T20:59:40;2.27;96.44
66576;SHT31;53428;47.686;16.584;2022-12-10T21:04:41;2.30;95.64
66576;SHT31;53428;47.686;16.584;2022-12-10T21:09:42;2.26;96.12
66576;SHT31;53428;47.686;16.584;2022-12-10T21:14:42;2.20;96.16
66576;SHT31;53428;47.686;16.584;2022-12-10T21:19:41;2.22;95.68
66576;SHT31;53428;47.686;16.584;2022-12-10T21:24:40;2.20;95.70
66576;SHT31;53428;47.686;16.584;2022-12-10T21:29:40;2.26;95.24
66576;SHT31;53428;47.686;16.584;2022-12-10T21:34:39;2.22;95.28
66576;SHT31;53428;47.686;16.584;2022-12-10T21:39:40;2.20;95.57
66576;SHT31;53428;47.686;16.584;2022-12-10T21:44:40;2.20;95.11
66576;SHT31;53428;47.686;16.584;2022-12-10T21:49:40;2.20;95.16
66576;SHT31;53428;47.686;16.584;2022-12-10T21:54:39;2.23;94.84
66576;SHT31;53428;47.686;16.584;2022-12-10T21:59:40;2.19;94.78
66576;SHT31;53428;47.686;16.584;2022-12-10T22:04:40;2.20;94.64
66576;SHT31;53428;47.686;16.584;2022-12-10T22:09:39;2.23;94.23
66576;SHT31;53428;47.686;16.584;2022-12-10T22:14:40;2.20;94.28
66576;SHT31;53428;47.686;16.584;2022-12-10T22:19:40;2.26;93.80
66576;SHT31;53428;47.686;16.584;2022-12-10T22:24:40;2.26;92.96
66576;SHT31;53428;47.686;16.584;2022-12-10T22:29:39;2.26;92.94
66576;SHT31;53428;47.686;16.584;2022-12-10T22:34:38;2.23;93.09
66576;SHT31;53428;47.686;16.584;2022-12-10T22:39:38;2.26;92.59
66576;SHT31;53428;47.686;16.584;2022-12-10T22:44:37;2.26;92.95
66576;SHT31;53428;47.686;16.584;2022-12-10T22:49:37;2.27;92.61
66576;SHT31;53428;47.686;16.584;2022-12-10T22:54:36;2.29;92.69
66576;SHT31;53428;47.686;16.584;2022-12-10T22:59:36;2.33;92.37
66576;SHT31;53428;47.686;16.584;2022-12-10T23:04:36;2.29;92.29
66576;SHT31;53428;47.686;16.584;2022-12-10T23:09:35;2.23;93.13
66576;SHT31;53428;47.686;16.584;2022-12-10T23:14:35;2.16;93.69
66576;SHT31;53428;47.686;16.584;2022-12-10T23:19:35;2.13;94.05
66576;SHT31;53428;47.686;16.584;2022-12-10T23:24:35;1.96;95.38
66576;SHT31;53428;47.686;16.584;2022-12-10T23:29:34;1.87;95.91
66576;SHT31;53428;47.686;16.584;2022-12-10T23:34:34;1.87;95.87
66576;SHT31;53428;47.686;16.584;2022-12-10T23:39:34;1.85;96.12
66576;SHT31;53428;47.686;16.584;2022-12-10T23:44:33;1.82;96.42
66576;SHT31;53428;47.686;16.584;2022-12-10T23:49:33;1.76;96.12
66576;SHT31;53428;47.686;16.584;2022-12-10T23:54:32;1.83;95.62
66576;SHT31;53428;47.686;16.584;2022-12-10T23:59:32;1.79;95.62
